createdAt,value
2022-09-16T00:04:28.063Z,20.22032
2022-09-16T00:09:29.742Z,20.27686
2022-09-16T00:14:31.400Z,20.27654
2022-09-16T00:19:33.061Z,19.34429
2022-09-16T00:24:34.685Z,19.62508
2022-09-16T00:29:36.301Z,19.69369
2022-09-16T00:34:37.902Z,19.28902
2022-09-16T00:39:39.539Z,19.94938
2022-09-16T00:44:41.166Z,19.83408
2022-09-16T00:49:42.768Z,20.1082
2022-09-16T00:54:44.424Z,19.89602
2022-09-16T00:59:46.062Z,19.91095
2022-09-16T01:04:47.686Z,20.15108
2022-09-16T01:09:49.285Z,19.54758
2022-09-16T01:14:50.879Z,19.70671
2022-09-16T01:19:52.536Z,19.39892
2022-09-16T01:24:54.135Z,19.72291
2022-09-16T01:29:55.777Z,19.46849
2022-09-16T01:34:57.411Z,17.99945
2022-09-16T01:39:59.145Z,18.80019
2022-09-16T01:45:00.825Z,18.81544
2022-09-16T01:50:02.515Z,18.79193
2022-09-16T01:55:04.793Z,18.20527
2022-09-16T02:00:06.511Z,18.24371
2022-09-16T02:05:08.165Z,17.52111
2022-09-16T02:10:09.869Z,17.3029
2022-09-16T02:15:11.493Z,17.12916
2022-09-16T02:20:13.183Z,17.42963
2022-09-16T02:25:14.803Z,17.72851
2022-09-16T02:30:16.392Z,17.10502
2022-09-16T02:35:18.026Z,16.91031
2022-09-16T02:40:19.814Z,17.24795
2022-09-16T02:45:21.526Z,17.26383
2022-09-16T02:50:23.150Z,17.02625
2022-09-16T02:55:24.773Z,16.71942
2022-09-16T03:00:26.452Z,16.53012
2022-09-16T03:05:28.206Z,16.18074
2022-09-16T03:10:29.849Z,16.06862
2022-09-16T03:15:31.457Z,15.80754
2022-09-16T03:20:33.066Z,16.09053
2022-09-16T03:25:34.685Z,15.9222
2022-09-16T03:30:36.287Z,15.96793
2022-09-16T03:35:37.909Z,15.93268
2022-09-16T03:40:39.698Z,15.93744
2022-09-16T03:45:41.379Z,15.85041
2022-09-16T03:50:42.970Z,15.61347
2022-09-16T03:55:44.628Z,15.99017
2022-09-16T04:00:46.256Z,15.00206
2022-09-16T04:05:47.866Z,15.77958
2022-09-16T04:10:49.499Z,15.69827
2022-09-16T04:15:51.143Z,15.4969
2022-09-16T04:20:52.771Z,15.69002
2022-09-16T04:25:54.407Z,15.7294
2022-09-16T04:30:56.072Z,15.48388
2022-09-16T04:35:57.759Z,15.31555
2022-09-16T04:40:59.435Z,15.50834
2022-09-16T04:46:01.233Z,14.80291
2022-09-16T04:51:02.923Z,14.83023
2022-09-16T04:56:04.539Z,14.10416
2022-09-16T05:01:06.259Z,14.72224
2022-09-16T05:06:07.915Z,15.10973
2022-09-16T05:11:09.582Z,15.08877
2022-09-16T05:16:11.182Z,14.78227
2022-09-16T05:21:12.946Z,14.63331
2022-09-16T05:26:14.600Z,14.83023
2022-09-16T05:31:16.257Z,14.68921
2022-09-16T05:36:17.920Z,14.42654
2022-09-16T05:41:19.563Z,14.41574
2022-09-16T05:46:21.224Z,14.45163
2022-09-16T05:51:22.893Z,14.53326
2022-09-16T05:56:24.490Z,14.53326
2022-09-16T06:01:26.185Z,14.13529
2022-09-16T06:06:27.897Z,14.1013
2022-09-16T06:11:29.493Z,13.90153
2022-09-16T06:16:31.098Z,13.67507
2022-09-16T06:21:32.697Z,13.79862
2022-09-16T06:26:34.309Z,14.07526
2022-09-16T06:31:35.963Z,13.61377
2022-09-16T06:36:40.361Z,13.55501
2022-09-16T06:41:44.637Z,13.36349
2022-09-16T06:46:46.484Z,13.63346
2022-09-16T06:51:48.082Z,13.57057
2022-09-16T06:56:49.793Z,13.45242
2022-09-16T07:01:51.434Z,13.43273
2022-09-16T07:07:09.939Z,13.39748
2022-09-16T07:12:16.239Z,13.286
2022-09-16T07:17:20.752Z,13.04366
2022-09-16T07:22:22.628Z,13.11258
2022-09-16T07:27:25.341Z,13.1526
2022-09-16T07:32:27.061Z,13.02333
2022-09-16T07:37:28.784Z,13.12878
2022-09-16T07:42:30.383Z,13.24915
2022-09-16T07:47:32.030Z,12.94234
2022-09-16T07:52:33.759Z,13.15863
2022-09-16T07:57:35.408Z,12.85246
2022-09-16T08:02:37.148Z,12.56661
2022-09-16T08:07:38.786Z,12.63363
2022-09-16T08:12:40.441Z,12.60663
2022-09-16T08:17:42.052Z,12.81943
2022-09-16T08:22:43.698Z,12.75495
2022-09-16T08:27:45.364Z,12.15341
2022-09-16T08:32:46.989Z,12.55359
2022-09-16T08:37:50.161Z,12.85373
2022-09-16T08:42:51.982Z,12.75718
2022-09-16T08:47:53.730Z,12.73463
2022-09-16T08:52:55.466Z,12.99094
2022-09-16T08:57:57.083Z,12.69493
2022-09-16T09:02:58.741Z,12.75845
2022-09-16T09:08:00.388Z,12.78449
2022-09-16T09:13:02.629Z,13.15736
2022-09-16T09:18:04.518Z,12.98776
2022-09-16T09:23:06.142Z,12.88517
2022-09-16T09:28:07.820Z,12.88358
2022-09-16T09:33:27.633Z,12.81466
2022-09-16T09:38:36.325Z,12.89311
2022-09-16T09:43:37.987Z,12.73209
2022-09-16T09:48:39.651Z,12.57296
2022-09-16T09:53:41.308Z,12.43068
2022-09-16T09:58:42.974Z,12.57392
2022-09-16T10:03:44.697Z,12.63045
2022-09-16T10:08:46.355Z,12.50404
2022-09-16T10:13:47.966Z,12.23027
2022-09-16T10:18:49.565Z,12.64061
2022-09-16T10:23:51.189Z,12.6927
2022-09-16T10:28:52.840Z,12.58186
2022-09-16T10:33:54.422Z,12.43957
2022-09-16T10:38:58.710Z,12.68222
2022-09-16T10:44:03.931Z,12.70763
2022-09-16T10:49:05.529Z,12.74066
2022-09-16T10:54:07.188Z,12.50976
2022-09-16T10:59:08.784Z,12.83499
2022-09-16T11:04:10.448Z,12.50563
2022-09-16T11:09:12.261Z,12.85087
2022-09-16T11:14:13.988Z,12.70922
2022-09-16T11:19:15.571Z,12.9055
2022-09-16T11:24:17.312Z,12.67492
2022-09-16T11:29:18.907Z,12.77877
2022-09-16T11:34:20.558Z,12.62569
2022-09-16T11:39:22.161Z,12.13308
2022-09-16T11:44:23.822Z,11.53948
2022-09-16T11:49:25.390Z,12.37446
2022-09-16T11:54:27.239Z,12.3986
2022-09-16T11:59:28.952Z,12.55105
2022-09-16T12:04:32.697Z,12.58726
2022-09-16T12:09:36.737Z,12.58408
2022-09-16T12:14:38.337Z,12.24773
2022-09-16T12:19:39.948Z,12.24107
2022-09-16T12:24:41.660Z,12.18771
2022-09-16T12:29:43.295Z,12.06098
2022-09-16T12:34:44.886Z,12.02859
2022-09-16T12:39:46.526Z,12.39161
2022-09-16T12:44:48.115Z,12.27695
2022-09-16T12:49:49.770Z,11.91203
2022-09-16T12:55:07.314Z,11.71733
2022-09-16T13:00:10.247Z,11.46484
2022-09-16T13:05:11.889Z,11.80468
2022-09-16T13:10:13.491Z,11.75195
2022-09-16T13:15:15.171Z,12.04256
2022-09-16T13:20:16.769Z,12.03176
2022-09-16T13:25:18.499Z,11.57251
2022-09-16T13:30:20.124Z,10.94111
2022-09-16T13:35:21.732Z,11.45277
2022-09-16T13:40:23.384Z,11.38226
2022-09-16T13:45:25.055Z,11.66302
2022-09-16T13:50:26.714Z,11.76402
2022-09-16T13:55:28.352Z,11.84755
2022-09-16T14:00:33.827Z,11.63031
2022-09-16T14:05:37.858Z,11.62364
2022-09-16T14:10:39.476Z,11.67732
2022-09-16T14:15:41.181Z,11.99524
2022-09-16T14:20:42.895Z,12.13689
2022-09-16T14:25:44.544Z,12.25282
2022-09-16T14:30:46.247Z,12.33127
2022-09-16T14:35:48.009Z,12.42337
2022-09-16T14:40:49.660Z,11.66144
2022-09-16T14:45:51.294Z,11.64206
2022-09-16T14:50:52.897Z,11.43149
2022-09-16T15:00:56.141Z,12.15341
2022-09-16T15:05:57.747Z,12.65205
2022-09-16T15:10:59.386Z,12.58853
2022-09-16T15:16:01.154Z,12.68857
2022-09-16T15:21:02.904Z,13.44353
2022-09-16T15:26:04.621Z,12.66316
2022-09-16T15:31:06.268Z,12.04097
2022-09-16T15:36:07.928Z,12.42369
2022-09-16T15:41:09.594Z,12.51325
2022-09-16T15:46:11.265Z,11.39211
2022-09-16T15:51:13.039Z,11.83072
2022-09-16T15:56:14.701Z,12.00191
2022-09-16T16:01:16.384Z,12.31729
2022-09-16T16:06:18.044Z,12.35477
2022-09-16T16:11:19.638Z,12.59361
2022-09-16T16:16:21.303Z,12.67238
2022-09-16T16:21:22.964Z,12.29379
2022-09-16T16:26:24.549Z,12.41924
2022-09-16T16:31:26.230Z,12.40082
2022-09-16T16:36:27.856Z,11.64143
2022-09-16T16:41:29.463Z,12.33222
2022-09-16T16:46:31.186Z,12.75273
2022-09-16T16:51:32.801Z,13.29267
2022-09-16T16:56:34.409Z,12.26679
2022-09-16T17:01:36.083Z,12.63744
2022-09-16T17:06:37.911Z,13.29965
2022-09-16T17:11:39.555Z,13.25201
2022-09-16T17:16:41.170Z,12.62728
2022-09-16T17:21:42.772Z,13.15927
2022-09-16T17:26:44.370Z,13.35142
2022-09-16T17:31:45.957Z,13.51753
2022-09-16T17:36:47.537Z,13.61695
2022-09-16T17:41:49.187Z,13.8974
2022-09-16T17:46:50.813Z,14.27631
2022-09-16T17:51:52.421Z,14.38747
2022-09-16T17:56:54.130Z,14.64665
2022-09-16T18:01:55.785Z,13.72271
2022-09-16T18:06:57.422Z,13.76019
2022-09-16T18:11:59.042Z,13.92503
2022-09-16T18:17:00.735Z,12.61076
2022-09-16T18:22:02.395Z,13.60075
2022-09-16T18:27:04.047Z,13.60075
2022-09-16T18:32:05.692Z,13.92439
2022-09-16T18:37:07.329Z,15.91267
2022-09-16T18:42:08.915Z,15.17706
2022-09-16T18:47:10.521Z,15.66238
2022-09-16T18:52:12.769Z,15.2841
2022-09-16T18:57:14.384Z,15.71797
2022-09-16T19:02:16.238Z,15.5131
2022-09-16T19:07:17.952Z,15.80436
2022-09-16T19:12:19.577Z,16.41419
2022-09-16T19:17:21.290Z,17.65387
2022-09-16T19:22:22.993Z,17.31465
2022-09-16T19:27:24.725Z,17.011
2022-09-16T19:32:26.423Z,18.18685
2022-09-16T19:37:28.035Z,18.37203
2022-09-16T19:42:29.647Z,18.21385
2022-09-16T19:47:31.278Z,18.20527
2022-09-16T19:52:32.928Z,17.89686
2022-09-16T19:57:34.568Z,19.48087
2022-09-16T20:02:36.299Z,19.48596
2022-09-16T20:07:37.949Z,18.50384
2022-09-16T20:12:39.582Z,17.78569
2022-09-16T20:17:41.234Z,16.82646
2022-09-16T20:22:42.919Z,16.95319
2022-09-16T20:27:44.528Z,18.77033
2022-09-16T20:32:46.185Z,18.42444
2022-09-16T20:37:47.906Z,19.04794
2022-09-16T20:42:49.533Z,19.11306
2022-09-16T20:47:51.162Z,17.73773
2022-09-16T20:52:52.827Z,18.05313
2022-09-16T20:57:54.423Z,17.03038
2022-09-16T21:02:56.009Z,18.2688
2022-09-16T21:07:57.766Z,18.4851
2022-09-16T21:12:59.349Z,20.13551
2022-09-16T21:18:00.945Z,20.7044
2022-09-16T21:23:02.690Z,20.40709
2022-09-16T21:28:04.296Z,19.64032
2022-09-16T21:33:06.014Z,17.97976
2022-09-16T21:38:07.946Z,18.76303
2022-09-16T21:43:09.596Z,19.27092
2022-09-16T21:48:11.208Z,15.88503
2022-09-16T21:53:12.845Z,15.64523
2022-09-16T21:58:14.824Z,14.59233
2022-09-16T22:03:16.480Z,13.27996
2022-09-16T22:08:18.103Z,12.63649
2022-09-16T22:13:19.912Z,13.38858
2022-09-16T22:18:21.571Z,12.60028
2022-09-16T22:23:23.204Z,13.4664
2022-09-16T22:28:24.797Z,13.20405
2022-09-16T22:33:26.381Z,12.57551
2022-09-16T22:38:27.973Z,13.36413
2022-09-16T22:43:29.589Z,13.51467
2022-09-16T22:48:31.226Z,12.66475
2022-09-16T22:53:32.827Z,12.00731
2022-09-16T22:58:34.453Z,13.4051
2022-09-16T23:03:36.182Z,13.59439
2022-09-16T23:08:37.882Z,12.7648
2022-09-16T23:13:39.508Z,11.69447
2022-09-16T23:18:41.111Z,12.64697
2022-09-16T23:23:42.703Z,12.20613
2022-09-16T23:28:44.339Z,13.22724
2022-09-16T23:33:45.980Z,13.48545
2022-09-16T23:38:47.574Z,12.84166
2022-09-16T23:43:49.246Z,13.16054
2022-09-16T23:48:50.928Z,13.37937
2022-09-16T23:53:52.550Z,12.52977
2022-09-16T23:58:54.168Z,12.96426
